sensor_id;sensor_type;location;lat;lon;timestamp;pressure;altitude;pressure_sealevel;temperature;humidity
49044;BME280;34860;48.066;14.124;2024-01-15T00:01:23;95255.56;;;-4.61;74.82
49044;BME280;34860;48.066;14.124;2024-01-15T00:04:16;95232.38;;;-4.54;74.92
49044;BME280;34860;48.066;14.124;2024-01-15T00:07:07;95240.53;;;-4.51;74.58
49044;BME280;34860;48.066;14.124;2024-01-15T00:10:01;95245.69;;;-4.39;74.46
49044;BME280;34860;48.066;14.124;2024-01-15T00:12:54;95244.28;;;-4.18;73.73
49044;BME280;34860;48.066;14.124;2024-01-15T00:15:47;95245.53;;;-4.08;73.13
49044;BME280;34860;48.066;14.124;2024-01-15T00:18:38;95261.38;;;-4.14;73.28
49044;BME280;34860;48.066;14.124;2024-01-15T00:21:31;95253.53;;;-4.26;73.66
49044;BME280;34860;48.066;14.124;2024-01-15T00:24:22;95262.78;;;-4.31;73.96
49044;BME280;34860;48.066;14.124;2024-01-15T00:27:19;95252.66;;;-4.38;74.06
49044;BME280;34860;48.066;14.124;2024-01-15T00:30:14;95243.03;;;-4.31;74.30
49044;BME280;34860;48.066;14.124;2024-01-15T00:33:06;95253.22;;;-4.17;74.03
49044;BME280;34860;48.066;14.124;2024-01-15T00:35:59;95247.06;;;-4.11;73.97
49044;BME280;34860;48.066;14.124;2024-01-15T00:38:52;95238.22;;;-4.01;73.76
49044;BME280;34860;48.066;14.124;2024-01-15T00:41:46;95238.72;;;-3.88;73.63
49044;BME280;34860;48.066;14.124;2024-01-15T00:44:41;95214.75;;;-3.71;73.20
49044;BME280;34860;48.066;14.124;2024-01-15T00:47:34;95213.25;;;-3.61;72.62
49044;BME280;34860;48.066;14.124;2024-01-15T00:50:28;95216.34;;;-3.59;72.28
49044;BME280;34860;48.066;14.124;2024-01-15T00:53:25;95232.63;;;-3.67;72.00
49044;BME280;34860;48.066;14.124;2024-01-15T00:56:26;95236.47;;;-3.68;72.02
49044;BME280;34860;48.066;14.124;2024-01-15T00:59:20;95246.94;;;-3.73;72.23
49044;BME280;34860;48.066;14.124;2024-01-15T01:02:15;95237.16;;;-3.85;72.56
49044;BME280;34860;48.066;14.124;2024-01-15T01:05:07;95229.00;;;-3.89;72.75
49044;BME280;34860;48.066;14.124;2024-01-15T01:08:02;95215.78;;;-3.94;72.99
49044;BME280;34860;48.066;14.124;2024-01-15T01:10:59;95228.47;;;-4.09;73.41
49044;BME280;34860;48.066;14.124;2024-01-15T01:13:54;95248.91;;;-4.22;73.93
49044;BME280;34860;48.066;14.124;2024-01-15T01:16:46;95258.19;;;-4.23;73.97
49044;BME280;34860;48.066;14.124;2024-01-15T01:19:39;95246.13;;;-4.33;74.22
49044;BME280;34860;48.066;14.124;2024-01-15T01:22:30;95253.47;;;-4.33;74.17
49044;BME280;34860;48.066;14.124;2024-01-15T01:25:22;95251.63;;;-4.26;74.00
49044;BME280;34860;48.066;14.124;2024-01-15T01:28:13;95243.88;;;-4.20;73.88
49044;BME280;34860;48.066;14.124;2024-01-15T01:31:07;95236.97;;;-4.14;73.70
49044;BME280;34860;48.066;14.124;2024-01-15T01:33:59;95232.00;;;-4.05;73.47
49044;BME280;34860;48.066;14.124;2024-01-15T01:36:52;95234.72;;;-4.01;73.29
49044;BME280;34860;48.066;14.124;2024-01-15T01:39:44;95228.63;;;-3.87;73.12
49044;BME280;34860;48.066;14.124;2024-01-15T01:42:35;95227.97;;;-3.62;72.76
49044;BME280;34860;48.066;14.124;2024-01-15T01:45:28;95226.91;;;-3.47;72.64
49044;BME280;34860;48.066;14.124;2024-01-15T01:48:24;95230.06;;;-3.34;72.40
49044;BME280;34860;48.066;14.124;2024-01-15T01:51:22;95227.38;;;-3.23;72.18
49044;BME280;34860;48.066;14.124;2024-01-15T01:54:16;95228.97;;;-3.12;72.23
49044;BME280;34860;48.066;14.124;2024-01-15T01:57:11;95229.00;;;-2.94;72.04
49044;BME280;34860;48.066;14.124;2024-01-15T02:00:07;95227.50;;;-2.80;72.05
49044;BME280;34860;48.066;14.124;2024-01-15T02:03:00;95222.47;;;-2.64;71.90
49044;BME280;34860;48.066;14.124;2024-01-15T02:05:52;95228.31;;;-2.47;71.88
49044;BME280;34860;48.066;14.124;2024-01-15T02:08:47;95227.19;;;-2.21;71.66
49044;BME280;34860;48.066;14.124;2024-01-15T02:11:40;95227.94;;;-2.06;71.62
49044;BME280;34860;48.066;14.124;2024-01-15T02:14:31;95233.38;;;-1.92;71.63
49044;BME280;34860;48.066;14.124;2024-01-15T02:17:27;95238.03;;;-1.81;71.56
49044;BME280;34860;48.066;14.124;2024-01-15T02:20:23;95238.41;;;-1.65;71.44
49044;BME280;34860;48.066;14.124;2024-01-15T02:23:18;95236.03;;;-1.56;71.41
49044;BME280;34860;48.066;14.124;2024-01-15T02:26:11;95238.75;;;-1.45;71.40
49044;BME280;34860;48.066;14.124;2024-01-15T02:29:02;95221.19;;;-1.37;71.32
49044;BME280;34860;48.066;14.124;2024-01-15T02:31:54;95223.16;;;-1.34;71.39
49044;BME280;34860;48.066;14.124;2024-01-15T02:34:46;95217.31;;;-1.39;71.56
49044;BME280;34860;48.066;14.124;2024-01-15T02:37:41;95223.16;;;-1.41;71.81
49044;BME280;34860;48.066;14.124;2024-01-15T02:40:38;95225.53;;;-1.47;71.94
49044;BME280;34860;48.066;14.124;2024-01-15T02:43:30;95223.56;;;-1.53;72.14
49044;BME280;34860;48.066;14.124;2024-01-15T02:46:25;95233.34;;;-1.59;72.25
49044;BME280;34860;48.066;14.124;2024-01-15T02:49:18;95220.50;;;-1.66;72.25
49044;BME280;34860;48.066;14.124;2024-01-15T02:52:12;95227.53;;;-1.69;72.39
49044;BME280;34860;48.066;14.124;2024-01-15T02:55:06;95228.28;;;-1.65;72.27
49044;BME280;34860;48.066;14.124;2024-01-15T02:57:59;95228.22;;;-1.50;72.24
49044;BME280;34860;48.066;14.124;2024-01-15T03:00:53;95221.59;;;-1.38;71.87
49044;BME280;34860;48.066;14.124;2024-01-15T03:03:46;95225.06;;;-1.31;71.82
49044;BME280;34860;48.066;14.124;2024-01-15T03:06:37;95227.38;;;-1.25;71.67
49044;BME280;34860;48.066;14.124;2024-01-15T03:09:29;95231.66;;;-1.21;71.67
49044;BME280;34860;48.066;14.124;2024-01-15T03:12:20;95242.53;;;-1.17;71.82
49044;BME280;34860;48.066;14.124;2024-01-15T03:15:12;95230.44;;;-1.13;71.63
49044;BME280;34860;48.066;14.124;2024-01-15T03:18:04;95237.44;;;-1.08;71.54
49044;BME280;34860;48.066;14.124;2024-01-15T03:20:56;95247.94;;;-1.03;71.39
49044;BME280;34860;48.066;14.124;2024-01-15T03:23:46;95265.06;;;-0.99;71.57
49044;BME280;34860;48.066;14.124;2024-01-15T03:26:40;95267.00;;;-0.96;71.52
49044;BME280;34860;48.066;14.124;2024-01-15T03:29:31;95271.28;;;-0.95;71.48
49044;BME280;34860;48.066;14.124;2024-01-15T03:32:25;95276.31;;;-0.93;71.50
49044;BME280;34860;48.066;14.124;2024-01-15T03:35:18;95288.00;;;-0.93;71.65
49044;BME280;34860;48.066;14.124;2024-01-15T03:38:10;95303.97;;;-0.91;71.56
49044;BME280;34860;48.066;14.124;2024-01-15T03:41:06;95296.97;;;-0.92;71.70
49044;BME280;34860;48.066;14.124;2024-01-15T03:43:58;95310.22;;;-0.90;71.60
49044;BME280;34860;48.066;14.124;2024-01-15T03:46:53;95303.97;;;-0.91;71.52
49044;BME280;34860;48.066;14.124;2024-01-15T03:49:48;95300.88;;;-0.93;71.68
49044;BME280;34860;48.066;14.124;2024-01-15T03:52:40;95311.78;;;-0.93;71.56
49044;BME280;34860;48.066;14.124;2024-01-15T03:55:34;95311.41;;;-0.95;71.77
49044;BME280;34860;48.066;14.124;2024-01-15T03:58:25;95314.50;;;-0.93;71.88
49044;BME280;34860;48.066;14.124;2024-01-15T04:01:17;95317.22;;;-0.86;71.86
49044;BME280;34860;48.066;14.124;2024-01-15T04:04:10;95309.81;;;-0.85;71.77
49044;BME280;34860;48.066;14.124;2024-01-15T04:07:06;95311.34;;;-0.81;71.80
49044;BME280;34860;48.066;14.124;2024-01-15T04:09:59;95312.94;;;-0.90;72.01
49044;BME280;34860;48.066;14.124;2024-01-15T04:12:52;95310.63;;;-0.96;72.24
49044;BME280;34860;48.066;14.124;2024-01-15T04:15:47;95303.59;;;-0.93;72.36
49044;BME280;34860;48.066;14.124;2024-01-15T04:18:40;95297.72;;;-0.88;72.32
49044;BME280;34860;48.066;14.124;2024-01-15T04:21:33;95302.03;;;-0.87;72.36
49044;BME280;34860;48.066;14.124;2024-01-15T04:24:25;95307.47;;;-0.80;72.27
49044;BME280;34860;48.066;14.124;2024-01-15T04:27:18;95307.06;;;-0.78;72.45
49044;BME280;34860;48.066;14.124;2024-01-15T04:30:09;95298.88;;;-0.82;72.17
49044;BME280;34860;48.066;14.124;2024-01-15T04:33:00;95304.72;;;-0.83;72.25
49044;BME280;34860;48.066;14.124;2024-01-15T04:35:52;95294.22;;;-0.81;72.26
49044;BME280;34860;48.066;14.124;2024-01-15T04:38:45;95303.16;;;-0.81;72.18
49044;BME280;34860;48.066;14.124;2024-01-15T04:41:38;95304.75;;;-0.87;72.10
49044;BME280;34860;48.066;14.124;2024-01-15T04:44:32;95303.97;;;-0.87;72.13
49044;BME280;34860;48.066;14.124;2024-01-15T04:47:27;95306.72;;;-0.87;72.03
49044;BME280;34860;48.066;14.124;2024-01-15T04:50:19;95314.88;;;-0.87;72.00
49044;BME280;34860;48.066;14.124;2024-01-15T04:53:14;95307.50;;;-0.90;72.09
49044;BME280;34860;48.066;14.124;2024-01-15T04:56:06;95314.50;;;-0.93;72.06
49044;BME280;34860;48.066;14.124;2024-01-15T04:59:02;95319.59;;;-0.95;71.90
49044;BME280;34860;48.066;14.124;2024-01-15T05:01:57;95330.88;;;-0.97;72.09
49044;BME280;34860;48.066;14.124;2024-01-15T05:04:48;95339.44;;;-0.95;71.96
49044;BME280;34860;48.066;14.124;2024-01-15T05:07:41;95335.16;;;-0.92;71.99
49044;BME280;34860;48.066;14.124;2024-01-15T05:10:33;95340.63;;;-0.92;72.11
49044;BME280;34860;48.066;14.124;2024-01-15T05:13:28;95340.63;;;-0.99;72.51
49044;BME280;34860;48.066;14.124;2024-01-15T05:16:23;95338.31;;;-1.04;72.57
49044;BME280;34860;48.066;14.124;2024-01-15T05:19:13;95335.63;;;-1.12;72.70
49044;BME280;34860;48.066;14.124;2024-01-15T05:22:06;95327.81;;;-1.17;73.00
49044;BME280;34860;48.066;14.124;2024-01-15T05:25:00;95331.31;;;-1.13;72.81
49044;BME280;34860;48.066;14.124;2024-01-15T05:27:51;95332.50;;;-1.10;72.46
49044;BME280;34860;48.066;14.124;2024-01-15T05:30:54;95333.66;;;-1.11;72.50
49044;BME280;34860;48.066;14.124;2024-01-15T05:33:48;95325.09;;;-1.10;72.41
49044;BME280;34860;48.066;14.124;2024-01-15T05:36:38;95333.25;;;-1.06;72.17
49044;BME280;34860;48.066;14.124;2024-01-15T05:39:31;95337.91;;;-1.03;72.06
49044;BME280;34860;48.066;14.124;2024-01-15T05:42:22;95337.13;;;-1.00;71.91
49044;BME280;34860;48.066;14.124;2024-01-15T05:45:15;95341.00;;;-1.01;71.85
49044;BME280;34860;48.066;14.124;2024-01-15T05:48:06;95323.50;;;-1.00;71.91
49044;BME280;34860;48.066;14.124;2024-01-15T05:51:03;95333.63;;;-1.00;71.78
49044;BME280;34860;48.066;14.124;2024-01-15T05:53:55;95325.44;;;-1.00;71.60
49044;BME280;34860;48.066;14.124;2024-01-15T05:56:50;95324.28;;;-1.03;71.69
49044;BME280;34860;48.066;14.124;2024-01-15T05:59:44;95327.41;;;-1.04;71.68
49044;BME280;34860;48.066;14.124;2024-01-15T06:02:37;95332.84;;;-1.04;71.72
49044;BME280;34860;48.066;14.124;2024-01-15T06:05:29;95329.34;;;-1.05;71.70
49044;BME280;34860;48.066;14.124;2024-01-15T06:08:23;95318.06;;;-1.03;71.58
49044;BME280;34860;48.066;14.124;2024-01-15T06:11:19;95318.44;;;-1.05;71.63
49044;BME280;34860;48.066;14.124;2024-01-15T06:14:10;95317.25;;;-1.04;71.46
49044;BME280;34860;48.066;14.124;2024-01-15T06:17:06;95313.00;;;-1.05;71.48
49044;BME280;34860;48.066;14.124;2024-01-15T06:19:57;95308.31;;;-1.04;71.49
49044;BME280;34860;48.066;14.124;2024-01-15T06:22:47;95310.25;;;-1.01;71.44
49044;BME280;34860;48.066;14.124;2024-01-15T06:25:40;95299.34;;;-1.01;71.44
49044;BME280;34860;48.066;14.124;2024-01-15T06:28:35;95297.78;;;-0.99;71.54
49044;BME280;34860;48.066;14.124;2024-01-15T06:31:27;95287.66;;;-0.98;71.32
49044;BME280;34860;48.066;14.124;2024-01-15T06:34:23;95301.66;;;-0.96;71.34
49044;BME280;34860;48.066;14.124;2024-01-15T06:37:15;95298.16;;;-0.97;71.15
49044;BME280;34860;48.066;14.124;2024-01-15T06:40:08;95297.41;;;-0.97;71.51
49044;BME280;34860;48.066;14.124;2024-01-15T06:43:01;95302.06;;;-0.94;71.38
49044;BME280;34860;48.066;14.124;2024-01-15T06:45:52;95288.00;;;-0.93;71.60
49044;BME280;34860;48.066;14.124;2024-01-15T06:48:46;95292.66;;;-0.89;71.32
49044;BME280;34860;48.066;14.124;2024-01-15T06:51:40;95304.75;;;-0.87;71.47
49044;BME280;34860;48.066;14.124;2024-01-15T06:54:34;95288.00;;;-0.85;71.19
49044;BME280;34860;48.066;14.124;2024-01-15T06:57:31;95295.38;;;-0.82;71.24
49044;BME280;34860;48.066;14.124;2024-01-15T07:00:25;95288.75;;;-0.81;71.14
49044;BME280;34860;48.066;14.124;2024-01-15T07:03:19;95289.13;;;-0.79;71.16
49044;BME280;34860;48.066;14.124;2024-01-15T07:06:13;95300.78;;;-0.75;71.22
49044;BME280;34860;48.066;14.124;2024-01-15T07:09:05;95299.63;;;-0.74;71.19
49044;BME280;34860;48.066;14.124;2024-01-15T07:12:00;95301.19;;;-0.73;71.14
49044;BME280;34860;48.066;14.124;2024-01-15T07:14:52;95301.56;;;-0.71;71.15
49044;BME280;34860;48.066;14.124;2024-01-15T07:17:47;95291.03;;;-0.69;71.40
49044;BME280;34860;48.066;14.124;2024-01-15T07:20:43;95293.38;;;-0.71;71.24
49044;BME280;34860;48.066;14.124;2024-01-15T07:23:38;95294.91;;;-0.66;71.24
49044;BME280;34860;48.066;14.124;2024-01-15T07:26:31;95301.56;;;-0.71;71.25
49044;BME280;34860;48.066;14.124;2024-01-15T07:29:24;95311.69;;;-0.68;71.28
49044;BME280;34860;48.066;14.124;2024-01-15T07:32:20;95307.78;;;-0.67;71.66
49044;BME280;34860;48.066;14.124;2024-01-15T07:35:14;95310.13;;;-0.65;71.26
49044;BME280;34860;48.066;14.124;2024-01-15T07:38:20;95303.88;;;-0.66;71.33
49044;BME280;34860;48.066;14.124;2024-01-15T07:41:13;95296.09;;;-0.64;71.26
49044;BME280;34860;48.066;14.124;2024-01-15T07:44:06;95306.19;;;-0.64;71.23
49044;BME280;34860;48.066;14.124;2024-01-15T07:47:02;95308.91;;;-0.61;71.32
49044;BME280;34860;48.066;14.124;2024-01-15T07:49:55;95305.38;;;-0.58;71.30
49044;BME280;34860;48.066;14.124;2024-01-15T07:52:51;95310.44;;;-0.56;71.32
49044;BME280;34860;48.066;14.124;2024-01-15T07:55:47;95299.53;;;-0.52;71.15
49044;BME280;34860;48.066;14.124;2024-01-15T07:58:42;95303.03;;;-0.52;71.09
49044;BME280;34860;48.066;14.124;2024-01-15T08:01:39;95297.56;;;-0.52;71.03
49044;BME280;34860;48.066;14.124;2024-01-15T08:04:34;95297.22;;;-0.54;71.11
49044;BME280;34860;48.066;14.124;2024-01-15T08:07:27;95298.75;;;-0.53;71.11
49044;BME280;34860;48.066;14.124;2024-01-15T08:10:21;95287.81;;;-0.53;71.23
49044;BME280;34860;48.066;14.124;2024-01-15T08:13:14;95289.03;;;-0.54;71.19
49044;BME280;34860;48.066;14.124;2024-01-15T08:16:10;95293.31;;;-0.57;71.29
49044;BME280;34860;48.066;14.124;2024-01-15T08:19:05;95291.72;;;-0.50;71.13
49044;BME280;34860;48.066;14.124;2024-01-15T08:22:00;95285.09;;;-0.53;71.15
49044;BME280;34860;48.066;14.124;2024-01-15T08:24:54;95287.44;;;-0.48;71.05
49044;BME280;34860;48.066;14.124;2024-01-15T08:27:50;95281.16;;;-0.45;70.99
49044;BME280;34860;48.066;14.124;2024-01-15T08:30:44;95282.69;;;-0.40;70.78
49044;BME280;34860;48.066;14.124;2024-01-15T08:33:36;95289.69;;;-0.39;70.98
49044;BME280;34860;48.066;14.124;2024-01-15T08:36:31;95289.31;;;-0.38;70.96
49044;BME280;34860;48.066;14.124;2024-01-15T08:39:36;95286.94;;;-0.32;70.79
49044;BME280;34860;48.066;14.124;2024-01-15T08:42:29;95289.25;;;-0.30;70.91
49044;BME280;34860;48.066;14.124;2024-01-15T08:45:22;95288.84;;;-0.29;70.89
49044;BME280;34860;48.066;14.124;2024-01-15T08:48:16;95279.50;;;-0.28;70.76
49044;BME280;34860;48.066;14.124;2024-01-15T08:51:10;95279.88;;;-0.26;70.73
49044;BME280;34860;48.066;14.124;2024-01-15T08:54:04;95290.38;;;-0.21;70.59
49044;BME280;34860;48.066;14.124;2024-01-15T08:56:59;95288.06;;;-0.22;70.54
49044;BME280;34860;48.066;14.124;2024-01-15T08:59:54;95277.53;;;-0.24;70.70
49044;BME280;34860;48.066;14.124;2024-01-15T09:02:51;95283.72;;;-0.20;70.70
49044;BME280;34860;48.066;14.124;2024-01-15T09:05:47;95295.41;;;-0.15;70.70
49044;BME280;34860;48.066;14.124;2024-01-15T09:08:42;95287.59;;;-0.13;70.80
49044;BME280;34860;48.066;14.124;2024-01-15T09:11:35;95288.41;;;-0.20;70.92
49044;BME280;34860;48.066;14.124;2024-01-15T09:14:32;95282.56;;;-0.19;70.86
49044;BME280;34860;48.066;14.124;2024-01-15T09:17:30;95285.31;;;-0.22;70.92
49044;BME280;34860;48.066;14.124;2024-01-15T09:20:25;95282.59;;;-0.26;71.05
49044;BME280;34860;48.066;14.124;2024-01-15T09:23:21;95294.69;;;-0.23;70.99
49044;BME280;34860;48.066;14.124;2024-01-15T09:26:17;95286.47;;;-0.23;70.89
49044;BME280;34860;48.066;14.124;2024-01-15T09:29:18;95301.69;;;-0.22;70.99
49044;BME280;34860;48.066;14.124;2024-01-15T09:32:13;95298.22;;;-0.30;70.96
49044;BME280;34860;48.066;14.124;2024-01-15T09:35:06;95303.31;;;-0.32;71.14
49044;BME280;34860;48.066;14.124;2024-01-15T09:38:04;95291.59;;;-0.32;70.84
49044;BME280;34860;48.066;14.124;2024-01-15T09:41:04;95286.94;;;-0.35;71.10
49044;BME280;34860;48.066;14.124;2024-01-15T09:44:03;95279.53;;;-0.31;70.93
49044;BME280;34860;48.066;14.124;2024-01-15T09:47:00;95294.34;;;-0.32;70.86
49044;BME280;34860;48.066;14.124;2024-01-15T09:49:52;95287.31;;;-0.30;70.95
49044;BME280;34860;48.066;14.124;2024-01-15T09:52:47;95290.78;;;-0.26;70.85
49044;BME280;34860;48.066;14.124;2024-01-15T09:55:45;95284.53;;;-0.23;70.72
49044;BME280;34860;48.066;14.124;2024-01-15T09:58:40;95283.31;;;-0.18;70.76
49044;BME280;34860;48.066;14.124;2024-01-15T10:01:39;95288.75;;;-0.14;70.63
49044;BME280;34860;48.066;14.124;2024-01-15T10:04:37;95287.19;;;-0.12;70.70
49044;BME280;34860;48.066;14.124;2024-01-15T10:07:31;95268.03;;;-0.08;70.44
49044;BME280;34860;48.066;14.124;2024-01-15T10:10:28;95291.41;;;-0.04;70.56
49044;BME280;34860;48.066;14.124;2024-01-15T10:13:23;95283.63;;;-0.05;70.54
49044;BME280;34860;48.066;14.124;2024-01-15T10:16:18;95279.28;;;0.01;70.56
49044;BME280;34860;48.066;14.124;2024-01-15T10:19:14;95271.88;;;0.02;70.53
49044;BME280;34860;48.066;14.124;2024-01-15T10:22:08;95273.00;;;0.08;70.42
49044;BME280;34860;48.066;14.124;2024-01-15T10:25:04;95283.88;;;0.15;70.31
49044;BME280;34860;48.066;14.124;2024-01-15T10:28:02;95278.78;;;0.17;70.26
49044;BME280;34860;48.066;14.124;2024-01-15T10:31:00;95278.72;;;0.24;70.41
49044;BME280;34860;48.066;14.124;2024-01-15T10:33:52;95270.13;;;0.26;70.15
49044;BME280;34860;48.066;14.124;2024-01-15T10:36:47;95269.81;;;0.16;70.41
49044;BME280;34860;48.066;14.124;2024-01-15T10:39:52;95263.59;;;0.12;70.47
49044;BME280;34860;48.066;14.124;2024-01-15T10:42:50;95270.25;;;0.11;70.40
49044;BME280;34860;48.066;14.124;2024-01-15T10:45:43;95265.59;;;0.08;70.55
49044;BME280;34860;48.066;14.124;2024-01-15T10:48:42;95264.34;;;0.16;70.54
49044;BME280;34860;48.066;14.124;2024-01-15T10:51:34;95264.34;;;0.16;70.46
49044;BME280;34860;48.066;14.124;2024-01-15T10:54:30;95270.56;;;0.17;70.33
49044;BME280;34860;48.066;14.124;2024-01-15T10:57:27;95256.88;;;0.21;70.48
49044;BME280;34860;48.066;14.124;2024-01-15T11:00:23;95257.19;;;0.30;70.16
49044;BME280;34860;48.066;14.124;2024-01-15T11:03:17;95266.59;;;0.25;70.13
49044;BME280;34860;48.066;14.124;2024-01-15T11:06:19;95263.06;;;0.28;70.13
49044;BME280;34860;48.066;14.124;2024-01-15T11:09:15;95261.50;;;0.31;70.10
49044;BME280;34860;48.066;14.124;2024-01-15T11:12:12;95254.47;;;0.30;70.06
49044;BME280;34860;48.066;14.124;2024-01-15T11:15:09;95257.59;;;0.28;70.17
49044;BME280;34860;48.066;14.124;2024-01-15T11:18:09;95258.41;;;0.25;70.38
49044;BME280;34860;48.066;14.124;2024-01-15T11:21:24;95256.47;;;0.26;70.35
49044;BME280;34860;48.066;14.124;2024-01-15T11:24:36;95244.75;;;0.25;70.27
49044;BME280;34860;48.066;14.124;2024-01-15T11:27:40;95252.09;;;0.32;70.12
49044;BME280;34860;48.066;14.124;2024-01-15T11:30:36;95241.56;;;0.34;70.21
49044;BME280;34860;48.066;14.124;2024-01-15T11:33:34;95226.69;;;0.39;70.15
49044;BME280;34860;48.066;14.124;2024-01-15T11:40:04;95229.38;;;0.42;70.13
49044;BME280;34860;48.066;14.124;2024-01-15T11:43:05;95226.69;;;0.39;70.08
49044;BME280;34860;48.066;14.124;2024-01-15T11:46:02;95240.69;;;0.41;70.19
49044;BME280;34860;48.066;14.124;2024-01-15T11:49:04;95228.22;;;0.40;70.04
49044;BME280;34860;48.066;14.124;2024-01-15T11:52:08;95230.22;;;0.35;70.14
49044;BME280;34860;48.066;14.124;2024-01-15T11:55:19;95227.88;;;0.34;70.01
49044;BME280;34860;48.066;14.124;2024-01-15T11:58:18;95221.22;;;0.35;70.12
49044;BME280;34860;48.066;14.124;2024-01-15T12:01:16;95224.72;;;0.39;70.07
49044;BME280;34860;48.066;14.124;2024-01-15T12:04:17;95224.75;;;0.35;70.16
49044;BME280;34860;48.066;14.124;2024-01-15T12:07:19;95215.81;;;0.31;70.11
49044;BME280;34860;48.066;14.124;2024-01-15T12:10:23;95207.25;;;0.29;70.16
49044;BME280;34860;48.066;14.124;2024-01-15T12:13:18;95207.19;;;0.33;70.10
49044;BME280;34860;48.066;14.124;2024-01-15T12:16:16;95202.94;;;0.28;70.09
49044;BME280;34860;48.066;14.124;2024-01-15T12:19:15;95203.34;;;0.30;70.03
49044;BME280;34860;48.066;14.124;2024-01-15T12:22:18;95196.22;;;0.40;69.97
49044;BME280;34860;48.066;14.124;2024-01-15T12:25:17;95190.34;;;0.42;70.02
49044;BME280;34860;48.066;14.124;2024-01-15T12:28:17;95182.13;;;0.42;69.99
49044;BME280;34860;48.066;14.124;2024-01-15T12:31:12;95178.22;;;0.43;69.99
49044;BME280;34860;48.066;14.124;2024-01-15T12:34:11;95180.50;;;0.48;69.72
49044;BME280;34860;48.066;14.124;2024-01-15T12:37:09;95181.72;;;0.43;69.79
49044;BME280;34860;48.066;14.124;2024-01-15T12:40:06;95192.25;;;0.45;69.82
49044;BME280;34860;48.066;14.124;2024-01-15T12:43:06;95184.41;;;0.47;69.86
49044;BME280;34860;48.066;14.124;2024-01-15T12:46:03;95183.22;;;0.48;69.83
49044;BME280;34860;48.066;14.124;2024-01-15T12:49:05;95188.72;;;0.44;69.91
49044;BME280;34860;48.066;14.124;2024-01-15T12:52:01;95194.25;;;0.41;69.79
49044;BME280;34860;48.066;14.124;2024-01-15T12:54:58;95194.28;;;0.37;69.94
49044;BME280;34860;48.066;14.124;2024-01-15T12:57:54;95185.34;;;0.33;69.71
49044;BME280;34860;48.066;14.124;2024-01-15T13:00:51;95185.03;;;0.27;69.83
49044;BME280;34860;48.066;14.124;2024-01-15T13:03:54;95184.28;;;0.23;69.76
49044;BME280;34860;48.066;14.124;2024-01-15T13:06:49;95185.84;;;0.24;69.84
49044;BME280;34860;48.066;14.124;2024-01-15T13:09:47;95183.50;;;0.23;69.77
49044;BME280;34860;48.066;14.124;2024-01-15T13:12:45;95177.69;;;0.17;69.82
49044;BME280;34860;48.066;14.124;2024-01-15T13:15:46;95169.13;;;0.15;69.89
49044;BME280;34860;48.066;14.124;2024-01-15T13:18:42;95173.84;;;0.14;69.86
49044;BME280;34860;48.066;14.124;2024-01-15T13:21:39;95171.88;;;0.15;69.75
49044;BME280;34860;48.066;14.124;2024-01-15T13:24:32;95168.78;;;0.09;69.83
49044;BME280;34860;48.066;14.124;2024-01-15T13:27:28;95173.50;;;0.09;69.86
49044;BME280;34860;48.066;14.124;2024-01-15T13:30:23;95173.13;;;0.07;69.97
49044;BME280;34860;48.066;14.124;2024-01-15T13:33:18;95173.13;;;0.07;69.99
49044;BME280;34860;48.066;14.124;2024-01-15T13:36:13;95169.59;;;0.06;70.08
49044;BME280;34860;48.066;14.124;2024-01-15T13:39:12;95166.09;;;0.06;69.95
49044;BME280;34860;48.066;14.124;2024-01-15T13:42:08;95172.34;;;0.06;70.15
49044;BME280;34860;48.066;14.124;2024-01-15T13:45:10;95170.34;;;0.10;70.11
49044;BME280;34860;48.066;14.124;2024-01-15T13:48:05;95169.94;;;0.12;69.92
49044;BME280;34860;48.066;14.124;2024-01-15T13:51:02;95160.59;;;0.13;69.87
49044;BME280;34860;48.066;14.124;2024-01-15T13:54:01;95154.31;;;0.12;69.91
49044;BME280;34860;48.066;14.124;2024-01-15T13:56:59;95158.56;;;0.17;69.77
49044;BME280;34860;48.066;14.124;2024-01-15T14:00:08;95164.84;;;0.14;69.89
49044;BME280;34860;48.066;14.124;2024-01-15T14:03:07;95190.25;;;0.11;69.96
49044;BME280;34860;48.066;14.124;2024-01-15T14:06:05;95194.94;;;0.10;70.00
49044;BME280;34860;48.066;14.124;2024-01-15T14:09:00;95196.19;;;0.02;70.06
49044;BME280;34860;48.066;14.124;2024-01-15T14:11:59;95208.28;;;0.01;70.23
49044;BME280;34860;48.066;14.124;2024-01-15T14:14:54;95202.06;;;0.01;70.16
49044;BME280;34860;48.066;14.124;2024-01-15T14:17:49;95183.75;;;-0.03;70.37
49044;BME280;34860;48.066;14.124;2024-01-15T14:20:44;95182.19;;;-0.04;70.52
49044;BME280;34860;48.066;14.124;2024-01-15T14:23:39;95176.34;;;-0.06;70.34
49044;BME280;34860;48.066;14.124;2024-01-15T14:26:39;95177.91;;;-0.05;70.40
49044;BME280;34860;48.066;14.124;2024-01-15T14:29:40;95174.03;;;-0.07;70.28
49044;BME280;34860;48.066;14.124;2024-01-15T14:32:35;95181.00;;;-0.03;70.31
49044;BME280;34860;48.066;14.124;2024-01-15T14:35:36;95176.72;;;-0.04;70.31
49044;BME280;34860;48.066;14.124;2024-01-15T14:38:39;95177.91;;;-0.05;70.29
49044;BME280;34860;48.066;14.124;2024-01-15T14:41:37;95177.13;;;-0.05;70.36
49044;BME280;34860;48.066;14.124;2024-01-15T14:44:34;95180.25;;;-0.07;70.46
49044;BME280;34860;48.066;14.124;2024-01-15T14:47:37;95179.50;;;-0.07;70.27
49044;BME280;34860;48.066;14.124;2024-01-15T14:50:32;95182.22;;;-0.07;70.29
49044;BME280;34860;48.066;14.124;2024-01-15T14:53:26;95184.94;;;-0.07;70.35
49044;BME280;34860;48.066;14.124;2024-01-15T14:56:20;95179.84;;;-0.05;70.47
49044;BME280;34860;48.066;14.124;2024-01-15T14:59:20;95186.09;;;-0.05;70.17
49044;BME280;34860;48.066;14.124;2024-01-15T15:02:15;95180.25;;;-0.03;70.36
49044;BME280;34860;48.066;14.124;2024-01-15T15:05:12;95188.44;;;-0.03;70.40
49044;BME280;34860;48.066;14.124;2024-01-15T15:08:07;95177.50;;;-0.03;70.26
49044;BME280;34860;48.066;14.124;2024-01-15T15:11:04;95182.19;;;-0.04;70.22
49044;BME280;34860;48.066;14.124;2024-01-15T15:14:00;95179.44;;;-0.04;70.12
49044;BME280;34860;48.066;14.124;2024-01-15T15:16:57;95169.31;;;-0.03;70.25
49044;BME280;34860;48.066;14.124;2024-01-15T15:19:54;95174.75;;;0.01;70.10
49044;BME280;34860;48.066;14.124;2024-01-15T15:22:51;95175.91;;;-0.01;70.26